Time;durP1;ratioP1;P1;durP2;ratioP2;P2;SDS_P1;SDS_P2;PMS_P1;PMS_P2;Temp;Humidity;BMP_temperature;BMP_pressure;BME280_temperature;BME280_humidity;BME280_pressure;Samples;Min_cycle;Max_cycle;Signal;HPM_P1;HPM_P2
2024/02/19 00:02:00;;;;;;;8.20;7.00;;;8.70;99.90;;;;;;5051704;28;20185;-59
2024/02/19 00:04:26;;;;;;;7.57;5.83;;;8.60;99.90;;;;;;5044295;28;20175;-60
2024/02/19 00:06:52;;;;;;;8.93;5.93;;;8.60;99.90;;;;;;5051212;28;20535;-57
2024/02/19 00:09:19;;;;;;;8.57;6.70;;;8.70;99.90;;;;;;5051101;28;20220;-55
2024/02/19 00:11:46;;;;;;;10.00;6.83;;;8.60;99.90;;;;;;5051214;28;20218;-58
2024/02/19 00:14:12;;;;;;;7.57;6.77;;;8.60;99.90;;;;;;5051322;28;21054;-55
2024/02/19 00:16:38;;;;;;;8.50;7.70;;;8.60;99.90;;;;;;5051053;28;20527;-57
2024/02/19 00:19:07;;;;;;;11.33;8.40;;;8.60;99.90;;;;;;5050487;28;20529;-55
2024/02/19 00:21:32;;;;;;;7.20;6.50;;;8.60;99.90;;;;;;5043454;28;20456;-60
2024/02/19 00:23:58;;;;;;;7.93;6.20;;;8.60;99.90;;;;;;5051352;28;20511;-58
2024/02/19 00:26:24;;;;;;;7.83;7.03;;;8.60;99.90;;;;;;5051331;28;20601;-56
2024/02/19 00:28:49;;;;;;;7.77;6.50;;;8.70;99.90;;;;;;5050855;28;20187;-55
2024/02/19 00:31:16;;;;;;;7.97;6.00;;;8.70;99.90;;;;;;5051064;28;20234;-56
2024/02/19 00:33:42;;;;;;;8.50;6.37;;;8.70;99.90;;;;;;5048360;28;20805;-62
2024/02/19 00:36:07;;;;;;;8.30;7.37;;;8.60;99.90;;;;;;5051528;28;20418;-61
2024/02/19 00:38:33;;;;;;;8.90;6.77;;;8.70;99.90;;;;;;5051426;28;20176;-61
2024/02/19 00:40:59;;;;;;;6.47;5.70;;;8.80;99.90;;;;;;5050473;28;20192;-66
2024/02/19 00:43:24;;;;;;;7.80;6.70;;;8.80;99.90;;;;;;5050796;28;20194;-62
2024/02/19 00:45:51;;;;;;;8.27;6.50;;;8.80;99.90;;;;;;5049996;28;20179;-61
2024/02/19 00:48:17;;;;;;;8.27;6.53;;;8.80;99.90;;;;;;5028476;28;20196;-61
2024/02/19 00:50:42;;;;;;;8.63;6.87;;;8.80;99.90;;;;;;5047791;28;20997;-63
2024/02/19 00:53:08;;;;;;;7.53;6.73;;;8.70;99.90;;;;;;5050370;28;20567;-63
2024/02/19 00:55:34;;;;;;;9.63;6.57;;;8.80;99.90;;;;;;5050721;28;20189;-61
2024/02/19 00:57:59;;;;;;;7.73;6.20;;;8.80;99.90;;;;;;5050482;28;20175;-62
2024/02/19 01:00:26;;;;;;;8.00;6.50;;;8.80;99.90;;;;;;5050251;28;20202;-58
2024/02/19 01:02:52;;;;;;;6.37;5.40;;;8.80;99.90;;;;;;5049548;28;20242;-60
2024/02/19 01:05:18;;;;;;;6.93;6.23;;;8.90;99.90;;;;;;5050502;28;20525;-60
2024/02/19 01:07:43;;;;;;;7.23;5.70;;;8.80;99.90;;;;;;5050249;28;20558;-61
2024/02/19 01:10:09;;;;;;;7.83;6.13;;;8.90;99.90;;;;;;5050336;28;20449;-61
2024/02/19 01:12:36;;;;;;;6.37;5.73;;;9.00;99.90;;;;;;5050046;28;20708;-62
2024/02/19 01:15:02;;;;;;;6.60;6.00;;;9.00;99.90;;;;;;5049856;28;20793;-60
2024/02/19 01:17:29;;;;;;;8.70;6.07;;;8.90;99.90;;;;;;5049849;28;20439;-60
2024/02/19 01:19:56;;;;;;;7.27;4.87;;;8.80;99.90;;;;;;5050054;28;20432;-61
2024/02/19 01:22:21;;;;;;;7.20;5.80;;;8.90;99.90;;;;;;5050057;28;20418;-61
2024/02/19 01:24:48;;;;;;;8.30;5.10;;;8.90;99.90;;;;;;5047735;28;21115;-61
2024/02/19 01:27:14;;;;;;;6.07;5.13;;;8.90;99.90;;;;;;5050297;28;20241;-60
2024/02/19 01:29:39;;;;;;;7.77;5.43;;;8.90;99.90;;;;;;5049894;28;20437;-61
2024/02/19 01:32:05;;;;;;;4.87;4.37;;;8.80;99.90;;;;;;5049720;28;20210;-61
2024/02/19 01:34:31;;;;;;;7.13;5.37;;;8.90;99.90;;;;;;5050029;28;20209;-61
2024/02/19 01:36:57;;;;;;;8.60;5.17;;;8.90;99.90;;;;;;5049810;28;20659;-60
2024/02/19 01:39:23;;;;;;;5.27;4.80;;;8.90;99.90;;;;;;5049574;28;20472;-61
2024/02/19 01:41:49;;;;;;;5.40;4.43;;;8.90;99.90;;;;;;5049131;28;20425;-62
2024/02/19 01:44:15;;;;;;;5.70;5.10;;;9.00;99.90;;;;;;5050090;28;20425;-61
2024/02/19 01:46:42;;;;;;;6.70;4.83;;;9.00;99.90;;;;;;5048302;28;20582;-61
2024/02/19 01:49:10;;;;;;;8.10;5.17;;;9.00;99.90;;;;;;5049918;28;20455;-61
2024/02/19 01:51:37;;;;;;;5.60;4.80;;;9.00;99.90;;;;;;5049865;28;20477;-61
2024/02/19 01:54:03;;;;;;;6.60;4.37;;;9.00;99.90;;;;;;5049591;28;20474;-62
2024/02/19 01:56:29;;;;;;;5.20;4.53;;;9.00;99.90;;;;;;5050130;28;20427;-62
2024/02/19 01:58:56;;;;;;;9.07;4.90;;;8.90;99.90;;;;;;5051164;28;20425;-61
2024/02/19 02:01:23;;;;;;;4.67;4.27;;;9.10;99.90;;;;;;5052909;28;20429;-62
2024/02/19 02:03:50;;;;;;;5.60;3.67;;;9.00;99.90;;;;;;5053806;28;20895;-62
2024/02/19 02:06:16;;;;;;;4.90;4.50;;;9.00;99.90;;;;;;5053700;28;20437;-61
2024/02/19 02:08:42;;;;;;;5.00;4.50;;;9.00;99.90;;;;;;5053815;28;20432;-62
2024/02/19 02:11:07;;;;;;;6.37;4.50;;;9.00;99.90;;;;;;5053512;28;20259;-62
2024/02/19 02:13:34;;;;;;;5.73;4.83;;;9.00;99.90;;;;;;5053295;28;20206;-62
2024/02/19 02:16:03;;;;;;;6.20;4.83;;;9.10;99.90;;;;;;5052642;28;20205;-62
2024/02/19 02:18:32;;;;;;;4.40;4.00;;;9.10;99.90;;;;;;5053139;28;20994;-62
2024/02/19 02:20:58;;;;;;;6.40;4.97;;;9.10;99.90;;;;;;5052355;28;20504;-62
2024/02/19 02:23:24;;;;;;;4.43;4.03;;;9.10;99.90;;;;;;5053069;28;20470;-62
2024/02/19 02:25:51;;;;;;;4.27;3.87;;;9.10;99.90;;;;;;5052910;28;20424;-62
2024/02/19 02:28:16;;;;;;;3.90;3.60;;;9.20;99.90;;;;;;5053274;28;20831;-62
2024/02/19 02:30:42;;;;;;;4.67;4.27;;;9.10;99.90;;;;;;5052760;28;20445;-62
2024/02/19 02:33:08;;;;;;;3.43;3.07;;;9.10;99.90;;;;;;5044793;28;20202;-62
2024/02/19 02:35:36;;;;;;;5.20;3.90;;;9.20;99.90;;;;;;5052989;28;20185;-61
2024/02/19 02:38:03;;;;;;;4.03;3.47;;;9.20;99.90;;;;;;5051319;28;20197;-62
2024/02/19 02:40:29;;;;;;;4.53;4.13;;;9.10;99.90;;;;;;5052945;28;20801;-62
2024/02/19 02:42:54;;;;;;;4.40;3.90;;;9.00;99.90;;;;;;5052857;28;20433;-61
2024/02/19 02:45:20;;;;;;;7.83;4.17;;;9.00;99.90;;;;;;5052916;28;20297;-61
2024/02/19 02:47:46;;;;;;;5.20;4.70;;;8.90;99.90;;;;;;5052988;28;20202;-61
2024/02/19 02:50:11;;;;;;;5.23;4.57;;;8.90;99.90;;;;;;5053280;28;20703;-60
2024/02/19 02:52:37;;;;;;;5.50;4.10;;;8.90;99.90;;;;;;5052098;28;20194;-61
2024/02/19 02:55:02;;;;;;;4.97;4.07;;;8.90;99.90;;;;;;5052981;28;20582;-62
2024/02/19 02:57:28;;;;;;;9.60;4.57;;;8.90;99.90;;;;;;5052913;28;20273;-62
2024/02/19 02:59:54;;;;;;;4.40;4.00;;;9.00;99.90;;;;;;5051309;28;20199;-60
2024/02/19 03:02:19;;;;;;;4.10;3.80;;;9.00;99.90;;;;;;5049905;28;20249;-62
2024/02/19 03:04:45;;;;;;;10.30;4.63;;;9.00;99.90;;;;;;5052506;28;20194;-62
2024/02/19 03:07:10;;;;;;;4.70;4.20;;;8.90;99.90;;;;;;5051622;28;20567;-62
2024/02/19 03:09:36;;;;;;;4.80;4.03;;;8.90;99.90;;;;;;5052033;28;20215;-62
2024/02/19 03:12:01;;;;;;;6.10;4.23;;;8.80;99.90;;;;;;5051899;28;20183;-62
2024/02/19 03:14:27;;;;;;;7.03;6.20;;;8.80;99.90;;;;;;5051418;28;20548;-62
2024/02/19 03:16:52;;;;;;;4.33;3.70;;;8.90;99.90;;;;;;5051289;28;20178;-62
2024/02/19 03:19:19;;;;;;;5.63;4.10;;;9.00;99.90;;;;;;5052009;28;20297;-62
2024/02/19 03:21:45;;;;;;;4.33;3.50;;;8.90;99.90;;;;;;5051945;28;20232;-62
2024/02/19 03:24:10;;;;;;;5.47;4.20;;;9.00;99.90;;;;;;5051523;28;20424;-61
2024/02/19 03:26:36;;;;;;;5.27;3.90;;;9.00;99.90;;;;;;5052010;28;20594;-61
2024/02/19 03:29:08;;;;;;;4.70;3.93;;;8.90;99.90;;;;;;5052048;28;20187;-62
2024/02/19 03:31:33;;;;;;;3.57;3.27;;;8.90;99.90;;;;;;5050971;28;20171;-62
2024/02/19 03:33:59;;;;;;;4.13;3.73;;;9.10;99.90;;;;;;5051553;28;20468;-62
2024/02/19 03:36:26;;;;;;;4.57;4.17;;;9.00;99.90;;;;;;5051773;28;20183;-62
2024/02/19 03:38:52;;;;;;;5.40;4.43;;;8.90;99.90;;;;;;5051367;28;20174;-62
2024/02/19 03:41:17;;;;;;;3.40;3.10;;;8.90;99.90;;;;;;5047405;28;20822;-62
2024/02/19 03:43:44;;;;;;;4.33;3.90;;;9.00;99.90;;;;;;5051948;28;20417;-61
2024/02/19 03:46:10;;;;;;;5.50;4.53;;;9.00;99.90;;;;;;5050788;28;20170;-62
2024/02/19 03:48:37;;;;;;;4.40;4.00;;;9.10;99.90;;;;;;5051553;28;20436;-61
2024/02/19 03:51:02;;;;;;;5.00;4.50;;;8.90;99.90;;;;;;5051083;28;20502;-62
2024/02/19 03:53:29;;;;;;;3.83;3.50;;;9.00;99.90;;;;;;5051378;28;20456;-61
2024/02/19 03:55:56;;;;;;;4.57;4.17;;;9.00;99.90;;;;;;5050417;28;20179;-62
2024/02/19 03:58:22;;;;;;;4.00;3.63;;;8.90;99.90;;;;;;5051535;28;20499;-61
2024/02/19 04:00:48;;;;;;;3.23;2.93;;;8.80;99.90;;;;;;5051039;28;20445;-61
2024/02/19 04:03:13;;;;;;;3.90;3.50;;;8.90;99.90;;;;;;5050298;28;20418;-62
2024/02/19 04:05:39;;;;;;;3.30;3.00;;;9.00;99.90;;;;;;5051308;28;20194;-61
2024/02/19 04:08:05;;;;;;;4.73;4.23;;;9.00;99.90;;;;;;5051371;28;20186;-60
2024/02/19 04:10:30;;;;;;;3.33;3.03;;;9.00;99.90;;;;;;5051310;28;20693;-60
2024/02/19 04:12:56;;;;;;;3.47;3.17;;;8.90;99.90;;;;;;5050599;28;20210;-62
2024/02/19 04:15:22;;;;;;;3.47;2.87;;;9.00;99.90;;;;;;5051392;28;20183;-62
2024/02/19 04:17:47;;;;;;;4.27;3.87;;;9.00;99.90;;;;;;5050807;28;20209;-61
2024/02/19 04:20:13;;;;;;;3.23;2.77;;;9.00;99.90;;;;;;5050147;28;20199;-60
2024/02/19 04:22:38;;;;;;;3.80;2.10;;;9.00;99.90;;;;;;5050100;28;20183;-61
2024/02/19 04:25:04;;;;;;;3.00;2.70;;;8.90;99.90;;;;;;5050855;28;20196;-61
2024/02/19 04:27:30;;;;;;;2.10;1.90;;;9.00;99.90;;;;;;5050841;28;20265;-62
2024/02/19 04:29:55;;;;;;;2.50;1.80;;;8.90;99.90;;;;;;5050577;28;20246;-61
2024/02/19 04:32:21;;;;;;;1.77;1.67;;;8.90;99.90;;;;;;5049869;28;20189;-61
2024/02/19 04:34:47;;;;;;;2.43;1.90;;;8.90;99.90;;;;;;5050644;28;20215;-62
2024/02/19 04:37:14;;;;;;;4.37;1.90;;;8.80;99.90;;;;;;5050690;28;20190;-62
2024/02/19 04:39:39;;;;;;;1.90;1.70;;;8.80;99.90;;;;;;5050535;28;20298;-62
2024/02/19 04:42:05;;;;;;;2.30;1.70;;;8.90;99.90;;;;;;5049593;28;20534;-60
2024/02/19 04:44:31;;;;;;;2.07;1.70;;;8.80;99.90;;;;;;5050466;28;20229;-62
2024/02/19 04:46:57;;;;;;;2.53;1.90;;;8.80;99.90;;;;;;5049618;28;20186;-62
2024/02/19 04:49:23;;;;;;;1.80;1.70;;;8.70;99.90;;;;;;5050279;28;20511;-62
2024/02/19 04:51:48;;;;;;;1.60;1.50;;;8.70;99.90;;;;;;5050324;28;20923;-62
2024/02/19 04:54:14;;;;;;;4.20;2.00;;;8.60;99.90;;;;;;5050033;28;20215;-62
2024/02/19 04:56:40;;;;;;;1.83;1.73;;;8.70;99.90;;;;;;5050226;28;20654;-61
2024/02/19 04:59:05;;;;;;;1.90;1.47;;;8.60;99.90;;;;;;5050077;28;20178;-62
2024/02/19 05:01:31;;;;;;;2.30;1.80;;;8.60;99.90;;;;;;5045887;28;20250;-62
2024/02/19 05:03:58;;;;;;;1.87;1.70;;;8.60;99.90;;;;;;5050021;28;20212;-61
2024/02/19 05:06:24;;;;;;;1.70;1.60;;;8.60;99.90;;;;;;5050267;28;20419;-62
2024/02/19 05:08:50;;;;;;;2.07;1.90;;;8.60;99.90;;;;;;5050369;28;20491;-62
2024/02/19 05:11:16;;;;;;;2.10;1.90;;;8.50;99.90;;;;;;5050393;28;20458;-61
2024/02/19 05:13:42;;;;;;;2.30;2.10;;;8.40;99.90;;;;;;5050577;28;20393;-61
2024/02/19 05:16:08;;;;;;;2.13;1.97;;;8.40;99.90;;;;;;5050088;28;20431;-62
2024/02/19 05:18:35;;;;;;;2.10;1.97;;;8.30;99.90;;;;;;5050323;28;20223;-62
2024/02/19 05:21:02;;;;;;;2.33;2.20;;;8.30;99.90;;;;;;5049226;28;20441;-61
2024/02/19 05:23:28;;;;;;;2.60;2.40;;;8.30;99.90;;;;;;5049187;28;20427;-62
2024/02/19 05:25:54;;;;;;;3.73;3.43;;;8.30;99.90;;;;;;5049845;28;20454;-62
2024/02/19 05:28:19;;;;;;;2.67;2.47;;;8.30;99.90;;;;;;5050102;28;20428;-62
2024/02/19 05:30:45;;;;;;;3.03;2.53;;;8.30;99.90;;;;;;5049496;28;20266;-62
2024/02/19 05:33:12;;;;;;;2.77;2.57;;;8.20;99.90;;;;;;5050293;28;20205;-62
2024/02/19 05:35:37;;;;;;;3.20;2.90;;;8.20;99.90;;;;;;5053766;28;20178;-61
2024/02/19 05:38:03;;;;;;;3.10;2.80;;;8.20;99.90;;;;;;5053367;28;20424;-62
2024/02/19 05:40:29;;;;;;;2.73;2.53;;;8.20;99.90;;;;;;5050318;28;20737;-61
2024/02/19 05:42:54;;;;;;;3.30;3.00;;;8.20;99.90;;;;;;5050559;28;20718;-63
2024/02/19 05:45:20;;;;;;;2.83;2.57;;;8.10;99.90;;;;;;5053350;28;20242;-62
2024/02/19 05:47:47;;;;;;;3.50;3.20;;;8.20;99.90;;;;;;5053772;28;20189;-63
2024/02/19 05:50:13;;;;;;;2.93;2.43;;;8.10;99.90;;;;;;5053583;28;20212;-62
2024/02/19 05:52:38;;;;;;;3.30;2.37;;;8.10;99.90;;;;;;5049878;28;20945;-63
2024/02/19 05:55:04;;;;;;;2.97;2.67;;;8.00;99.90;;;;;;5051519;28;20178;-62
2024/02/19 05:57:30;;;;;;;3.00;2.70;;;8.00;99.90;;;;;;5053539;28;20229;-62
2024/02/19 05:59:56;;;;;;;2.77;2.40;;;8.00;99.90;;;;;;5053160;28;20934;-61
2024/02/19 06:02:21;;;;;;;3.17;2.60;;;8.00;99.90;;;;;;5053036;28;20608;-59
2024/02/19 06:04:47;;;;;;;4.00;2.80;;;8.00;99.90;;;;;;5053647;28;20555;-59
2024/02/19 06:07:12;;;;;;;3.57;2.80;;;7.90;99.90;;;;;;5053236;28;20231;-59
2024/02/19 06:09:41;;;;;;;4.03;2.67;;;7.90;99.90;;;;;;5052647;28;20206;-60
2024/02/19 06:12:11;;;;;;;2.50;2.30;;;7.80;99.90;;;;;;5053058;28;20613;-59
2024/02/19 06:14:36;;;;;;;1.60;1.40;;;7.70;99.90;;;;;;5052944;28;20466;-59
2024/02/19 06:17:02;;;;;;;1.83;1.70;;;7.70;99.90;;;;;;5052603;28;20436;-59
2024/02/19 06:19:28;;;;;;;1.50;1.40;;;7.70;99.90;;;;;;5054069;28;20245;-59
2024/02/19 06:21:53;;;;;;;1.17;1.07;;;7.60;99.90;;;;;;5054934;28;20528;-59
2024/02/19 06:24:19;;;;;;;1.20;1.10;;;7.60;99.90;;;;;;5054667;28;20173;-59
2024/02/19 06:26:44;;;;;;;1.30;1.20;;;7.60;99.90;;;;;;5054768;28;20288;-59
2024/02/19 06:29:10;;;;;;;2.10;1.30;;;7.60;99.90;;;;;;5053349;28;20181;-60
2024/02/19 06:31:37;;;;;;;3.03;1.10;;;7.60;99.90;;;;;;5046912;28;20189;-60
2024/02/19 06:34:03;;;;;;;1.50;1.37;;;7.60;99.90;;;;;;5050253;28;20521;-59
2024/02/19 06:36:28;;;;;;;1.30;1.10;;;7.60;99.90;;;;;;5052930;28;20889;-59
2024/02/19 06:38:54;;;;;;;1.30;1.20;;;7.50;99.90;;;;;;5051274;28;20184;-60
2024/02/19 06:41:19;;;;;;;2.23;1.23;;;7.50;99.90;;;;;;5046700;28;20196;-59
2024/02/19 06:43:45;;;;;;;1.47;1.23;;;7.50;99.90;;;;;;5052695;28;20301;-61
2024/02/19 06:46:14;;;;;;;1.77;1.57;;;7.60;99.90;;;;;;5050777;28;20182;-58
2024/02/19 06:48:41;;;;;;;1.30;1.20;;;7.50;99.90;;;;;;5052554;28;20177;-56
2024/02/19 06:51:06;;;;;;;1.20;1.03;;;7.50;99.90;;;;;;5052465;28;20781;-57
2024/02/19 06:53:32;;;;;;;3.03;1.57;;;7.40;99.90;;;;;;5051712;28;20558;-60
2024/02/19 06:55:58;;;;;;;1.23;1.13;;;7.60;99.90;;;;;;5052277;28;20176;-59
2024/02/19 06:58:24;;;;;;;1.53;1.40;;;7.70;99.90;;;;;;5052608;28;20470;-59
2024/02/19 07:00:49;;;;;;;1.87;1.73;;;7.60;99.90;;;;;;5050476;28;20259;-59
2024/02/19 07:03:15;;;;;;;1.40;1.30;;;7.50;99.90;;;;;;5052252;28;20184;-60
2024/02/19 07:05:42;;;;;;;2.40;1.60;;;7.50;99.90;;;;;;5052502;28;20189;-59
2024/02/19 07:08:07;;;;;;;1.40;1.30;;;7.50;99.90;;;;;;5034279;28;20454;-60
2024/02/19 07:10:33;;;;;;;1.53;1.43;;;7.40;99.90;;;;;;5048281;28;20449;-57
2024/02/19 07:12:59;;;;;;;1.77;1.50;;;7.40;99.90;;;;;;5049110;28;20204;-60
2024/02/19 07:15:24;;;;;;;1.77;1.50;;;7.50;99.90;;;;;;5052601;28;20242;-58
2024/02/19 07:17:50;;;;;;;1.70;1.30;;;7.60;99.90;;;;;;5051501;28;20177;-58
2024/02/19 07:20:16;;;;;;;1.20;1.10;;;7.40;99.90;;;;;;5051831;28;20282;-59
2024/02/19 07:22:41;;;;;;;1.43;1.33;;;7.40;99.90;;;;;;5052009;28;20175;-58
2024/02/19 07:25:07;;;;;;;3.00;1.10;;;7.40;99.90;;;;;;5044594;28;20204;-60
2024/02/19 07:27:34;;;;;;;1.20;1.10;;;7.40;99.90;;;;;;5051942;28;20224;-60
2024/02/19 07:29:59;;;;;;;2.20;1.60;;;7.40;99.90;;;;;;5051846;28;20479;-59
2024/02/19 07:32:25;;;;;;;1.70;1.53;;;7.40;99.90;;;;;;5051031;28;20619;-60
2024/02/19 07:34:51;;;;;;;1.10;1.00;;;7.40;99.90;;;;;;5051791;28;20212;-59
2024/02/19 07:37:16;;;;;;;1.30;1.17;;;7.30;99.90;;;;;;5051789;28;20215;-58
2024/02/19 07:39:42;;;;;;;1.53;0.90;;;7.30;99.90;;;;;;5050492;28;20482;-60
2024/02/19 07:42:08;;;;;;;1.03;1.00;;;7.30;99.90;;;;;;5049618;28;20181;-58
2024/02/19 07:44:34;;;;;;;0.97;0.93;;;7.20;99.90;;;;;;5045462;28;20435;-57
2024/02/19 07:47:01;;;;;;;1.13;1.03;;;7.30;99.90;;;;;;5041837;28;20511;-53
2024/02/19 07:49:27;;;;;;;0.80;0.80;;;7.30;99.90;;;;;;5031495;28;20621;-58
2024/02/19 07:51:52;;;;;;;1.10;1.00;;;7.20;99.90;;;;;;5051938;28;20469;-60
2024/02/19 07:54:18;;;;;;;0.93;0.87;;;7.30;99.90;;;;;;5050449;28;20660;-59
2024/02/19 07:56:43;;;;;;;1.37;1.20;;;7.20;99.90;;;;;;5043057;28;20185;-61
2024/02/19 07:59:10;;;;;;;1.83;1.00;;;7.20;99.90;;;;;;5051205;28;20586;-60
2024/02/19 08:01:35;;;;;;;0.80;0.80;;;7.30;99.90;;;;;;5050870;28;20247;-60
2024/02/19 08:04:01;;;;;;;1.27;0.93;;;7.30;99.90;;;;;;5051041;28;20425;-62
2024/02/19 08:06:26;;;;;;;1.00;0.90;;;7.30;99.90;;;;;;5050476;28;20195;-64
2024/02/19 08:08:52;;;;;;;1.10;1.00;;;7.20;99.90;;;;;;5051111;28;20185;-61
2024/02/19 08:11:18;;;;;;;1.30;1.20;;;7.20;99.90;;;;;;5050844;28;20584;-63
2024/02/19 08:13:43;;;;;;;1.70;1.20;;;7.10;99.90;;;;;;5051337;28;20278;-59
2024/02/19 08:16:10;;;;;;;1.40;1.03;;;7.20;99.90;;;;;;5050075;28;20852;-57
2024/02/19 08:18:35;;;;;;;0.80;0.80;;;7.20;99.90;;;;;;5046140;28;20209;-57
2024/02/19 08:21:01;;;;;;;1.47;1.20;;;7.20;99.90;;;;;;5044343;28;20438;-59
2024/02/19 08:23:26;;;;;;;1.40;1.03;;;7.20;99.90;;;;;;5043709;28;20209;-56
2024/02/19 08:25:52;;;;;;;1.00;0.90;;;7.20;99.90;;;;;;5042031;28;20184;-60
2024/02/19 08:28:18;;;;;;;1.13;1.00;;;7.30;99.90;;;;;;5041250;28;20181;-60
2024/02/19 08:30:44;;;;;;;0.70;0.70;;;7.30;99.90;;;;;;5043361;28;20202;-59
2024/02/19 08:33:10;;;;;;;1.43;1.07;;;7.30;99.90;;;;;;5043705;28;20209;-60
2024/02/19 08:35:35;;;;;;;1.53;1.00;;;7.30;99.90;;;;;;5043843;28;20430;-60
2024/02/19 08:38:01;;;;;;;1.00;0.90;;;7.20;99.90;;;;;;5043305;28;20176;-61
2024/02/19 08:40:26;;;;;;;1.07;0.80;;;7.20;99.90;;;;;;5047303;28;20205;-60
2024/02/19 08:42:52;;;;;;;1.80;1.00;;;7.20;99.90;;;;;;5049839;28;20271;-58
2024/02/19 08:45:18;;;;;;;1.20;1.10;;;7.20;99.90;;;;;;5050421;28;20190;-58
2024/02/19 08:47:43;;;;;;;1.10;1.00;;;7.10;99.90;;;;;;5049888;28;20172;-58
2024/02/19 08:50:09;;;;;;;1.57;1.00;;;7.10;99.90;;;;;;5050450;28;20811;-59
2024/02/19 08:52:35;;;;;;;0.80;0.80;;;7.20;99.90;;;;;;5050467;28;20550;-55
2024/02/19 08:55:00;;;;;;;1.00;0.80;;;7.20;99.90;;;;;;5049191;28;20217;-57
2024/02/19 08:57:26;;;;;;;1.60;1.13;;;7.30;99.90;;;;;;5055474;28;20179;-58
2024/02/19 08:59:52;;;;;;;1.07;0.90;;;7.40;99.90;;;;;;5050624;28;20236;-57
2024/02/19 09:02:18;;;;;;;0.80;0.73;;;7.40;99.90;;;;;;5049667;28;20441;-60
2024/02/19 09:04:44;;;;;;;1.00;0.90;;;7.40;99.90;;;;;;5057221;28;20180;-57
2024/02/19 09:07:12;;;;;;;1.63;1.00;;;7.50;99.90;;;;;;5050017;28;20200;-62
2024/02/19 09:09:39;;;;;;;1.17;0.90;;;7.40;99.90;;;;;;5049216;28;20452;-63
2024/02/19 09:12:06;;;;;;;1.27;1.10;;;7.50;99.90;;;;;;5053327;28;20491;-62
2024/02/19 09:14:32;;;;;;;1.20;1.00;;;7.50;99.90;;;;;;5042306;28;20453;-62
2024/02/19 09:16:57;;;;;;;1.20;1.10;;;7.50;99.90;;;;;;5041724;28;20792;-62
2024/02/19 09:19:23;;;;;;;1.27;1.10;;;7.60;99.90;;;;;;5050002;28;20200;-65
2024/02/19 09:21:49;;;;;;;0.90;0.90;;;7.60;99.90;;;;;;5050299;28;20183;-63
2024/02/19 09:24:15;;;;;;;3.53;1.10;;;7.50;99.90;;;;;;5049694;28;20496;-62
2024/02/19 09:26:41;;;;;;;1.37;1.10;;;7.40;99.90;;;;;;5050025;28;20216;-61
2024/02/19 09:29:07;;;;;;;1.23;1.13;;;7.40;99.90;;;;;;5052294;28;20916;-60
2024/02/19 09:31:33;;;;;;;2.47;1.40;;;7.40;99.90;;;;;;5049138;28;20513;-59
2024/02/19 09:33:59;;;;;;;1.67;1.37;;;7.50;99.90;;;;;;5049271;28;20459;-62
2024/02/19 09:36:25;;;;;;;2.50;1.70;;;7.40;99.90;;;;;;5049531;28;20177;-61
2024/02/19 09:38:53;;;;;;;2.13;1.70;;;7.40;99.90;;;;;;5049589;28;20471;-65
2024/02/19 09:41:19;;;;;;;1.43;1.33;;;7.30;99.90;;;;;;5031576;28;20191;-63
2024/02/19 09:43:44;;;;;;;3.77;1.53;;;7.40;99.90;;;;;;5049801;28;20434;-65
2024/02/19 09:46:15;;;;;;;3.50;1.53;;;7.60;99.90;;;;;;5049547;28;20428;-65
2024/02/19 09:48:47;;;;;;;1.30;1.20;;;7.60;99.90;;;;;;5049342;28;20179;-61
2024/02/19 09:51:17;;;;;;;1.30;1.20;;;7.50;99.90;;;;;;5048838;28;20814;-63
2024/02/19 09:53:44;;;;;;;1.50;1.40;;;7.60;99.90;;;;;;5049952;28;20541;-62
2024/02/19 09:56:13;;;;;;;2.00;1.70;;;7.70;99.90;;;;;;5049527;28;20425;-62
2024/02/19 09:58:40;;;;;;;1.43;1.33;;;7.60;99.90;;;;;;5049681;28;20508;-58
2024/02/19 10:01:07;;;;;;;1.07;0.97;;;7.40;99.90;;;;;;5049566;28;20435;-60
2024/02/19 10:03:32;;;;;;;1.60;1.30;;;7.30;99.90;;;;;;5048682;28;20798;-60
2024/02/19 10:05:58;;;;;;;1.90;1.27;;;7.10;99.90;;;;;;5048848;28;20436;-61
2024/02/19 10:08:23;;;;;;;5.10;1.93;;;7.20;99.90;;;;;;5049341;28;20187;-59
2024/02/19 10:10:56;;;;;;;2.27;1.80;;;7.20;99.90;;;;;;5048889;28;20223;-59
2024/02/19 10:13:21;;;;;;;2.50;2.30;;;7.00;99.90;;;;;;5049006;28;20214;-60
2024/02/19 10:15:50;;;;;;;2.00;1.80;;;7.00;99.90;;;;;;5048708;28;20875;-60
2024/02/19 10:18:19;;;;;;;5.13;2.40;;;6.90;99.90;;;;;;5048680;28;20591;-59
2024/02/19 10:20:46;;;;;;;2.43;2.23;;;6.90;99.90;;;;;;5052342;28;20521;-58
2024/02/19 10:23:11;;;;;;;2.10;1.70;;;6.80;99.90;;;;;;5052846;28;20518;-57
2024/02/19 10:25:37;;;;;;;2.50;2.30;;;6.90;99.90;;;;;;5052963;28;20516;-59
2024/02/19 10:28:05;;;;;;;3.40;2.33;;;6.90;99.90;;;;;;5052101;28;20218;-59
2024/02/19 10:30:30;;;;;;;2.23;2.03;;;6.90;99.90;;;;;;5051897;28;20282;-59
2024/02/19 10:32:56;;;;;;;3.10;1.97;;;6.90;99.90;;;;;;5049566;28;20517;-60
2024/02/19 10:35:23;;;;;;;1.90;1.80;;;6.90;99.90;;;;;;5051139;28;20180;-60
2024/02/19 10:37:48;;;;;;;7.70;3.43;;;6.80;99.90;;;;;;5052996;28;20260;-59
2024/02/19 10:40:17;;;;;;;2.40;1.90;;;6.90;99.90;;;;;;5053296;28;20533;-60
2024/02/19 10:42:46;;;;;;;2.60;1.73;;;6.90;99.90;;;;;;5053284;28;20190;-60
2024/02/19 10:45:12;;;;;;;1.97;1.47;;;6.90;99.90;;;;;;5053561;28;20476;-60
2024/02/19 10:47:38;;;;;;;1.70;1.53;;;6.80;99.90;;;;;;5053033;28;20425;-60
2024/02/19 10:50:06;;;;;;;2.70;1.73;;;6.90;99.90;;;;;;5052288;28;20459;-58
2024/02/19 10:52:33;;;;;;;1.40;1.27;;;6.90;99.90;;;;;;5053008;28;20540;-58
2024/02/19 10:55:00;;;;;;;1.47;1.37;;;7.00;99.90;;;;;;5051209;28;20459;-62
2024/02/19 10:57:32;;;;;;;6.57;2.90;;;6.90;99.90;;;;;;5052623;28;20507;-59
2024/02/19 11:00:11;;;;;;;2.90;1.00;;;7.00;99.90;;;;;;5047059;28;20469;-62
2024/02/19 11:02:38;;;;;;;1.40;1.30;;;7.00;99.90;;;;;;5046716;28;20514;-63
2024/02/19 11:05:08;;;;;;;1.90;1.40;;;7.10;99.90;;;;;;5052501;28;20518;-60
2024/02/19 11:07:34;;;;;;;2.40;1.10;;;7.10;99.90;;;;;;5052141;28;20412;-60
2024/02/19 11:10:04;;;;;;;1.37;1.27;;;7.20;99.90;;;;;;5052012;28;20795;-58
2024/02/19 11:12:30;;;;;;;1.03;0.93;;;7.40;99.90;;;;;;5050492;28;20438;-60
2024/02/19 11:14:55;;;;;;;1.33;1.20;;;7.40;99.90;;;;;;5051466;28;20813;-60
2024/02/19 11:17:23;;;;;;;1.67;1.30;;;7.40;99.90;;;;;;5052045;28;20426;-58
2024/02/19 11:19:50;;;;;;;0.97;0.90;;;7.50;99.90;;;;;;5045176;28;20697;-60
2024/02/19 11:22:22;;;;;;;1.63;1.00;;;7.60;99.90;;;;;;5051674;28;20427;-59
2024/02/19 11:24:49;;;;;;;0.70;0.70;;;7.60;99.90;;;;;;5051881;28;20417;-61
2024/02/19 11:27:15;;;;;;;0.80;0.73;;;7.50;99.90;;;;;;5051322;28;20513;-60
2024/02/19 11:29:40;;;;;;;2.63;0.80;;;7.40;99.90;;;;;;5051076;28;21043;-59
2024/02/19 11:32:07;;;;;;;1.10;0.90;;;7.30;99.90;;;;;;5051363;28;20183;-59
2024/02/19 11:34:32;;;;;;;1.27;0.97;;;7.40;99.90;;;;;;5050149;28;20204;-60
2024/02/19 11:37:05;;;;;;;1.60;1.10;;;7.40;99.90;;;;;;5051022;28;20418;-59
2024/02/19 11:39:32;;;;;;;0.90;0.80;;;7.40;99.90;;;;;;5050522;28;20226;-59
2024/02/19 11:42:02;;;;;;;1.90;1.20;;;7.30;99.90;;;;;;5046074;28;20414;-60
2024/02/19 11:44:29;;;;;;;2.03;0.80;;;7.70;99.90;;;;;;5051141;28;20504;-60
2024/02/19 11:46:56;;;;;;;0.83;0.83;;;7.80;99.90;;;;;;5050848;28;20510;-57
2024/02/19 11:49:25;;;;;;;0.80;0.80;;;7.70;99.90;;;;;;5050453;28;20474;-60
2024/02/19 11:51:51;;;;;;;1.00;0.90;;;7.70;99.90;;;;;;5051385;28;20459;-60
2024/02/19 11:54:17;;;;;;;1.10;1.00;;;7.70;99.90;;;;;;5050163;28;20472;-61
2024/02/19 11:56:43;;;;;;;1.63;1.10;;;7.70;99.90;;;;;;5044538;28;20453;-59
2024/02/19 11:59:10;;;;;;;0.97;0.80;;;7.80;99.90;;;;;;5051234;28;20449;-60
2024/02/19 12:01:35;;;;;;;1.10;1.00;;;7.90;99.90;;;;;;5050599;28;20246;-60
2024/02/19 12:04:03;;;;;;;0.80;0.80;;;8.00;99.90;;;;;;5053904;28;20424;-60
2024/02/19 12:06:38;;;;;;;1.60;0.93;;;8.00;99.90;;;;;;5051155;28;20544;-58
2024/02/19 12:09:07;;;;;;;1.50;0.80;;;7.90;99.90;;;;;;5051152;28;20904;-59
2024/02/19 12:11:33;;;;;;;1.67;1.00;;;8.10;99.90;;;;;;5050775;28;20423;-61
2024/02/19 12:13:59;;;;;;;1.40;1.10;;;8.20;99.90;;;;;;5051046;28;20467;-60
2024/02/19 12:16:27;;;;;;;1.90;1.00;;;8.30;99.90;;;;;;5050284;28;20933;-60
2024/02/19 12:18:54;;;;;;;1.20;1.10;;;8.30;99.90;;;;;;5051279;28;20240;-62
2024/02/19 12:21:22;;;;;;;1.10;1.00;;;8.30;99.90;;;;;;5049880;28;20448;-62
2024/02/19 12:23:50;;;;;;;1.60;1.33;;;8.30;99.90;;;;;;5049066;28;20413;-63
2024/02/19 12:26:16;;;;;;;1.50;1.40;;;8.30;99.90;;;;;;5045415;28;20433;-62
2024/02/19 12:28:42;;;;;;;3.17;1.10;;;8.40;99.90;;;;;;5044097;28;20435;-62
2024/02/19 12:31:08;;;;;;;1.37;1.00;;;8.40;99.90;;;;;;5046273;28;20758;-62
2024/02/19 12:33:37;;;;;;;1.20;1.10;;;8.50;99.90;;;;;;5049831;28;20527;-62
2024/02/19 12:36:08;;;;;;;1.30;1.20;;;8.50;99.90;;;;;;5050186;28;20475;-61
2024/02/19 12:38:35;;;;;;;1.27;1.17;;;8.50;99.90;;;;;;5049737;28;20488;-63
2024/02/19 12:41:01;;;;;;;1.57;1.30;;;8.40;99.90;;;;;;5050523;28;20454;-63
2024/02/19 12:43:27;;;;;;;1.50;1.33;;;8.30;99.90;;;;;;5049319;28;20429;-62
2024/02/19 12:45:53;;;;;;;1.10;1.00;;;8.40;99.90;;;;;;5044921;28;20436;-61
2024/02/19 12:48:18;;;;;;;3.90;1.20;;;8.50;99.90;;;;;;5028612;28;20427;-64
2024/02/19 12:50:44;;;;;;;1.20;1.10;;;8.50;99.90;;;;;;5050384;28;20600;-67
2024/02/19 12:53:12;;;;;;;1.33;1.03;;;8.50;99.90;;;;;;5049201;28;20205;-61